메인 페이지
METAR-TAF:

METAR-TAF

공항 :

몽고메리, 앨라배마, 미국

위도: 32-18-01N, 경도: 086-24-22W, 고도: 67m

현재 날씨관측

예보는 57분 전, 03:53시(UTC)에 발표되었습니다.
무풍
온도 10°C
습도 76%
기압 1024 hPa
시정: 16.1km
맑음

METAR: KMGM 220353Z AUTO 00000KT 10SM CLR 10/06 A3024 RMK AO2 SLP238 T01000056 TSNO

시각: 23:50 (04:50 UTC)

예보

예보는 5 시간 13분 전, 23:37시(UTC)에 발표되었습니다.
예보 대상 시간: 22일 00시부터 22일 24시까지 (UTC)
북북동4kt
시정: 10km
맑음

TAF: KMGM 212337Z 2200/2224 03004KT P6SM SKC

4,000개 이상의 공항 관측 자료 및 예보 (METAR 및 TAF 보고).

지도상에서 검색 가능한 기상관측소가 노란 점과 빨간 점으로 표시되어 있습니다.

기상관측소 명을 보려면 표시 위로 마우스를 이동하세요.

날씨 관측과 예보를 보려면 클릭하세요.

지도 변경 : 확대하려면 엑스 표시가 있는 녹색 버튼, 축소하려면 빼기 표시가 있는 녹색 버튼, 다음 페이지의 지도를 보려면 녹색 화살표를 클릭하세요.


METAR-TAF: